createdAt,value
2018-12-13T00:01:20.520Z,7.27
2018-12-13T00:03:49.226Z,7.43
2018-12-13T00:06:18.537Z,7.17
2018-12-13T00:08:47.340Z,6.90
2018-12-13T00:11:16.191Z,6.83
2018-12-13T00:13:45.193Z,6.97
2018-12-13T00:16:14.581Z,6.67
2018-12-13T00:18:43.417Z,6.90
2018-12-13T00:21:11.995Z,6.90
2018-12-13T00:23:41.092Z,6.73
2018-12-13T00:26:10.480Z,7.37
2018-12-13T00:28:39.177Z,6.57
2018-12-13T00:31:07.901Z,7.37
2018-12-13T00:33:37.108Z,6.67
2018-12-13T00:36:06.207Z,7.60
2018-12-13T00:38:34.937Z,6.80
2018-12-13T00:41:03.817Z,7.27
2018-12-13T00:43:33.352Z,7.17
2018-12-13T00:46:02.086Z,6.90
2018-12-13T00:48:30.955Z,6.83
2018-12-13T00:50:59.693Z,7.53
2018-12-13T00:53:30.248Z,7.10
2018-12-13T00:55:59.009Z,7.50
2018-12-13T00:58:28.219Z,7.03
2018-12-13T01:01:01.516Z,7.57
2018-12-13T01:03:30.727Z,7.43
2018-12-13T01:05:59.202Z,8.23
2018-12-13T01:08:28.005Z,7.27
2018-12-13T01:10:57.499Z,7.33
2018-12-13T01:13:26.251Z,6.87
2018-12-13T01:15:55.000Z,7.37
2018-12-13T01:18:23.796Z,6.97
2018-12-13T01:20:52.716Z,6.97
2018-12-13T01:23:21.417Z,7.00
2018-12-13T01:25:50.726Z,7.60
2018-12-13T01:28:19.364Z,7.43
2018-12-13T01:30:48.097Z,7.97
2018-12-13T01:33:17.453Z,7.93
2018-12-13T01:35:46.382Z,7.80
2018-12-13T01:38:15.067Z,7.63
2018-12-13T01:40:44.097Z,7.47
2018-12-13T01:43:12.964Z,6.83
2018-12-13T01:45:41.468Z,8.13
2018-12-13T01:48:10.942Z,7.07
2018-12-13T01:50:39.726Z,7.57
2018-12-13T01:53:08.194Z,7.57
2018-12-13T01:55:37.053Z,7.67
2018-12-13T01:58:05.889Z,7.77
2018-12-13T02:00:34.898Z,7.27
2018-12-13T02:03:03.544Z,7.47
2018-12-13T02:05:32.748Z,8.67
2018-12-13T02:08:01.655Z,7.00
2018-12-13T02:10:30.932Z,7.57
2018-12-13T02:12:59.437Z,6.83
2018-12-13T02:15:27.994Z,7.17
2018-12-13T02:17:56.940Z,7.37
2018-12-13T02:20:25.520Z,7.40
2018-12-13T02:22:55.017Z,7.70
2018-12-13T02:25:24.210Z,7.47
2018-12-13T02:27:52.984Z,7.73
2018-12-13T02:30:21.891Z,7.80
2018-12-13T02:32:51.900Z,8.07
2018-12-13T02:35:21.235Z,7.93
2018-12-13T02:37:49.968Z,7.57
2018-12-13T02:40:19.902Z,8.73
2018-12-13T02:42:48.918Z,8.00
2018-12-13T02:45:18.215Z,7.10
2018-12-13T02:47:46.985Z,8.83
2018-12-13T02:50:16.590Z,7.77
2018-12-13T02:52:45.613Z,7.27
2018-12-13T02:55:14.287Z,7.30
2018-12-13T02:57:42.844Z,7.83
2018-12-13T03:00:12.142Z,7.20
2018-12-13T03:02:40.817Z,7.57
2018-12-13T03:05:09.958Z,7.63
2018-12-13T03:07:38.804Z,8.00
2018-12-13T03:10:07.454Z,8.23
2018-12-13T03:12:36.218Z,8.57
2018-12-13T03:15:04.949Z,8.03
2018-12-13T03:17:33.505Z,7.50
2018-12-13T03:20:02.156Z,7.67
2018-12-13T03:22:31.069Z,8.90
2018-12-13T03:24:59.689Z,8.00
2018-12-13T03:27:28.311Z,8.83
2018-12-13T03:29:57.104Z,8.73
2018-12-13T03:32:25.572Z,9.10
2018-12-13T03:34:54.775Z,8.47
2018-12-13T03:37:23.922Z,8.23
2018-12-13T03:39:53.181Z,8.23
2018-12-13T03:42:21.889Z,8.13
2018-12-13T03:44:50.616Z,9.17
2018-12-13T03:47:19.434Z,8.93
2018-12-13T03:49:47.997Z,8.30
2018-12-13T03:52:16.955Z,8.83
2018-12-13T03:54:45.682Z,8.00
2018-12-13T03:57:14.413Z,8.63
2018-12-13T03:59:42.944Z,8.87
2018-12-13T04:02:12.362Z,9.10
2018-12-13T04:04:41.481Z,8.73
2018-12-13T04:07:10.863Z,9.30
2018-12-13T04:09:39.426Z,9.83
2018-12-13T04:12:08.056Z,9.43
2018-12-13T04:14:36.619Z,9.00
2018-12-13T04:17:05.464Z,8.80
2018-12-13T04:19:33.957Z,9.63
2018-12-13T04:22:02.705Z,8.00
2018-12-13T04:24:31.293Z,9.63
2018-12-13T04:26:59.782Z,6.93
2018-12-13T04:29:34.964Z,10.30
2018-12-13T04:32:03.675Z,7.77
2018-12-13T04:34:33.180Z,10.60
2018-12-13T04:37:01.728Z,9.43
2018-12-13T04:39:30.447Z,9.97
2018-12-13T04:41:59.021Z,9.80
2018-12-13T04:44:27.683Z,10.83
2018-12-13T04:46:56.404Z,9.20
2018-12-13T04:49:25.465Z,9.33
2018-12-13T04:51:54.151Z,10.70
2018-12-13T04:54:23.507Z,8.80
2018-12-13T04:56:51.981Z,6.73
2018-12-13T04:59:20.844Z,8.57
2018-12-13T05:01:49.510Z,8.20
2018-12-13T05:04:18.106Z,9.40
2018-12-13T05:06:47.920Z,9.63
2018-12-13T05:09:16.455Z,9.50
2018-12-13T05:11:45.480Z,8.47
2018-12-13T05:14:14.792Z,9.57
2018-12-13T05:16:43.248Z,10.23
2018-12-13T05:19:12.019Z,9.83
2018-12-13T05:21:41.443Z,9.60
2018-12-13T05:24:10.359Z,9.73
2018-12-13T05:26:39.064Z,10.17
2018-12-13T05:29:08.353Z,10.23
2018-12-13T05:31:37.046Z,9.20
2018-12-13T05:34:06.350Z,10.63
2018-12-13T05:36:35.309Z,9.57
2018-12-13T05:39:06.998Z,10.20
2018-12-13T05:41:35.681Z,7.77
2018-12-13T05:44:04.638Z,10.53
2018-12-13T05:46:33.602Z,10.17
2018-12-13T05:49:03.120Z,10.03
2018-12-13T05:51:31.992Z,10.23
2018-12-13T05:54:01.354Z,9.23
2018-12-13T05:56:29.872Z,11.70
2018-12-13T05:58:58.852Z,11.43
2018-12-13T06:01:27.944Z,10.47
2018-12-13T06:03:56.663Z,10.47
2018-12-13T06:06:25.510Z,10.43
2018-12-13T06:08:54.025Z,10.07
2018-12-13T06:11:22.657Z,10.17
2018-12-13T06:13:51.215Z,11.20
2018-12-13T06:16:19.887Z,9.93
2018-12-13T06:18:49.589Z,9.70
2018-12-13T06:21:19.017Z,10.87
2018-12-13T06:23:47.575Z,11.07
2018-12-13T06:26:16.210Z,10.33
2018-12-13T06:28:45.126Z,10.30
2018-12-13T06:31:13.783Z,10.33
2018-12-13T06:33:42.443Z,10.07
2018-12-13T06:36:11.183Z,10.67
2018-12-13T06:38:40.069Z,11.60
2018-12-13T06:41:08.696Z,10.77
2018-12-13T06:43:37.274Z,12.00
2018-12-13T06:46:05.799Z,11.10
2018-12-13T06:48:34.388Z,10.87
2018-12-13T06:51:02.984Z,11.13
2018-12-13T06:53:32.056Z,11.13
2018-12-13T06:56:01.173Z,11.10
2018-12-13T06:58:30.332Z,11.70
2018-12-13T07:00:59.618Z,11.77
2018-12-13T07:03:28.776Z,11.43
2018-12-13T07:05:57.271Z,11.17
2018-12-13T07:08:25.735Z,10.87
2018-12-13T07:10:54.474Z,10.40
2018-12-13T07:13:24.051Z,11.20
2018-12-13T07:15:52.667Z,10.90
2018-12-13T07:18:21.260Z,10.97
2018-12-13T07:20:49.852Z,10.90
2018-12-13T07:23:18.377Z,11.20
2018-12-13T07:25:46.905Z,12.20
2018-12-13T07:28:15.435Z,11.13
2018-12-13T07:30:44.030Z,10.93
2018-12-13T07:33:12.702Z,9.63
2018-12-13T07:35:41.815Z,11.80
2018-12-13T07:38:14.190Z,11.03
2018-12-13T07:40:41.800Z,11.07
2018-12-13T07:43:10.916Z,11.40
2018-12-13T07:45:39.807Z,11.10
2018-12-13T07:48:08.768Z,11.60
2018-12-13T07:50:37.432Z,11.30
2018-12-13T07:53:06.687Z,11.63
2018-12-13T07:55:35.230Z,11.37
2018-12-13T07:58:03.880Z,11.07
2018-12-13T08:00:33.100Z,10.97
2018-12-13T08:03:01.639Z,11.03
2018-12-13T08:05:30.249Z,11.30
2018-12-13T08:07:58.963Z,11.17
2018-12-13T08:10:28.178Z,10.43
2018-12-13T08:12:57.001Z,11.00
2018-12-13T08:15:26.233Z,10.93
2018-12-13T08:17:55.010Z,9.20
2018-12-13T08:20:23.528Z,10.70
2018-12-13T08:22:52.197Z,11.37
2018-12-13T08:25:21.022Z,10.83
2018-12-13T08:27:49.946Z,11.40
2018-12-13T08:30:18.559Z,11.87
2018-12-13T08:32:47.087Z,11.90
2018-12-13T08:35:16.319Z,12.27
2018-12-13T08:37:44.847Z,12.33
2018-12-13T08:40:13.469Z,12.07
2018-12-13T08:42:42.077Z,11.77
2018-12-13T08:45:11.384Z,10.93
2018-12-13T08:47:40.625Z,11.20
2018-12-13T08:50:10.712Z,13.17
2018-12-13T08:52:39.502Z,12.23
2018-12-13T08:55:08.140Z,11.77
2018-12-13T08:57:36.763Z,11.63
2018-12-13T09:00:06.652Z,11.90
2018-12-13T09:02:35.879Z,12.27
2018-12-13T09:05:05.913Z,11.90
2018-12-13T09:07:34.587Z,11.93
2018-12-13T09:10:03.427Z,12.50
2018-12-13T09:12:32.861Z,13.27
2018-12-13T09:15:01.630Z,12.47
2018-12-13T09:17:30.326Z,12.33
2018-12-13T09:19:59.335Z,12.83
2018-12-13T09:22:28.068Z,11.90
2018-12-13T09:24:56.879Z,12.27
2018-12-13T09:27:25.559Z,12.03
2018-12-13T09:29:54.351Z,12.30
2018-12-13T09:32:22.896Z,12.23
2018-12-13T09:34:51.972Z,12.63
2018-12-13T09:37:21.100Z,11.03
2018-12-13T09:39:50.432Z,12.90
2018-12-13T09:42:19.124Z,12.10
2018-12-13T09:44:47.650Z,12.10
2018-12-13T09:47:16.180Z,12.17
2018-12-13T09:49:45.230Z,12.27
2018-12-13T09:52:14.535Z,11.87
2018-12-13T09:54:43.833Z,11.53
2018-12-13T09:57:14.144Z,11.67
2018-12-13T09:59:42.753Z,12.30
2018-12-13T10:02:11.390Z,12.57
2018-12-13T10:04:40.990Z,13.30
2018-12-13T10:07:09.800Z,13.30
2018-12-13T10:09:38.351Z,13.07
2018-12-13T10:12:07.163Z,12.03
2018-12-13T10:14:35.771Z,14.03
2018-12-13T10:17:04.743Z,13.53
2018-12-13T10:19:33.917Z,13.73
2018-12-13T10:22:02.443Z,11.00
2018-12-13T10:24:31.137Z,14.07
2018-12-13T10:26:59.587Z,12.83
2018-12-13T10:29:28.836Z,13.47
2018-12-13T10:31:57.568Z,13.43
2018-12-13T10:34:26.264Z,11.37
2018-12-13T10:36:54.852Z,12.83
2018-12-13T10:39:23.576Z,13.43
2018-12-13T10:41:52.398Z,13.57
2018-12-13T10:44:25.268Z,14.13
2018-12-13T10:46:54.207Z,12.53
2018-12-13T10:49:23.114Z,12.50
2018-12-13T10:51:51.648Z,13.67
2018-12-13T10:54:21.055Z,14.67
2018-12-13T10:56:50.317Z,13.07
2018-12-13T10:59:19.149Z,13.93
2018-12-13T11:01:53.828Z,12.33
2018-12-13T11:04:22.484Z,11.33
2018-12-13T11:06:51.306Z,13.13
2018-12-13T11:09:20.494Z,12.10
2018-12-13T11:11:49.095Z,15.00
2018-12-13T11:14:17.730Z,13.37
2018-12-13T11:16:46.563Z,11.37
2018-12-13T11:19:15.728Z,14.60
2018-12-13T11:21:44.337Z,14.50
2018-12-13T11:24:13.075Z,12.53
2018-12-13T11:26:41.876Z,13.33
2018-12-13T11:29:28.807Z,13.90
2018-12-13T11:31:57.644Z,14.83
2018-12-13T11:34:27.140Z,14.87
2018-12-13T11:36:55.755Z,15.53
2018-12-13T11:39:24.269Z,14.63
2018-12-13T11:41:52.808Z,14.37
2018-12-13T11:44:21.796Z,15.00
2018-12-13T11:46:50.298Z,14.70
2018-12-13T11:49:18.921Z,14.30
2018-12-13T11:51:47.721Z,12.13
2018-12-13T11:54:31.452Z,15.33
2018-12-13T11:57:00.115Z,14.23
2018-12-13T11:59:29.095Z,13.10
2018-12-13T12:01:57.985Z,15.87
2018-12-13T12:04:26.751Z,15.03
2018-12-13T12:06:55.819Z,15.90
2018-12-13T12:09:24.344Z,14.80
2018-12-13T12:11:53.672Z,14.83
2018-12-13T12:14:22.227Z,14.53
2018-12-13T12:16:50.904Z,14.50
2018-12-13T12:19:19.502Z,14.57
2018-12-13T12:21:48.147Z,16.93
2018-12-13T12:24:16.834Z,15.47
2018-12-13T12:26:45.560Z,16.33
2018-12-13T12:29:15.014Z,15.70
2018-12-13T12:31:43.999Z,15.57
2018-12-13T12:34:13.342Z,15.77
2018-12-13T12:36:42.489Z,15.30
2018-12-13T12:39:11.247Z,15.70
2018-12-13T12:41:40.061Z,14.57
2018-12-13T12:44:08.952Z,15.23
2018-12-13T12:46:37.798Z,14.70
2018-12-13T12:49:06.370Z,15.33
2018-12-13T12:51:35.918Z,15.77
2018-12-13T12:54:05.147Z,14.90
2018-12-13T12:56:34.621Z,15.23
2018-12-13T12:59:03.433Z,15.50
2018-12-13T13:01:32.071Z,14.17
2018-12-13T13:04:05.003Z,16.80
2018-12-13T13:06:33.500Z,14.97
2018-12-13T13:09:02.138Z,15.63
2018-12-13T13:11:31.736Z,14.33
2018-12-13T13:14:26.673Z,16.30
2018-12-13T13:16:55.475Z,16.27
2018-12-13T13:19:23.948Z,16.00
2018-12-13T13:21:53.252Z,15.40
2018-12-13T13:24:22.240Z,16.60
2018-12-13T13:26:51.014Z,15.93
2018-12-13T13:29:19.718Z,14.60
2018-12-13T13:31:49.134Z,14.77
2018-12-13T13:34:17.622Z,15.27
2018-12-13T13:36:46.225Z,15.30
2018-12-13T13:39:14.790Z,15.63
2018-12-13T13:41:43.395Z,15.20
2018-12-13T13:44:12.342Z,15.40
2018-12-13T13:46:41.184Z,13.83
2018-12-13T13:49:09.867Z,13.83
2018-12-13T13:51:38.585Z,14.83
2018-12-13T13:54:07.916Z,15.63
2018-12-13T13:56:36.923Z,15.53
2018-12-13T13:59:05.680Z,14.43
2018-12-13T14:01:34.217Z,14.37
2018-12-13T14:04:02.942Z,14.00
2018-12-13T14:06:32.221Z,15.00
2018-12-13T14:09:01.328Z,15.00
2018-12-13T14:11:30.249Z,14.47
2018-12-13T14:13:58.767Z,15.07
2018-12-13T14:16:28.117Z,14.33
2018-12-13T14:19:03.461Z,13.90
2018-12-13T14:21:32.390Z,12.60
2018-12-13T14:24:01.570Z,13.17
2018-12-13T14:26:31.217Z,12.77
2018-12-13T14:29:00.052Z,14.07
2018-12-13T14:31:29.125Z,13.40
2018-12-13T14:33:58.504Z,13.17
2018-12-13T14:36:27.839Z,13.40
2018-12-13T14:38:56.637Z,14.00
2018-12-13T14:41:25.137Z,14.90
2018-12-13T14:43:53.684Z,13.07
2018-12-13T14:46:22.389Z,14.97
2018-12-13T14:48:50.893Z,13.87
2018-12-13T14:51:19.486Z,14.20
2018-12-13T14:53:48.400Z,13.83
2018-12-13T14:56:17.510Z,15.07
2018-12-13T14:58:46.336Z,14.83
2018-12-13T15:01:15.025Z,13.40
2018-12-13T15:03:43.764Z,13.70
2018-12-13T15:06:12.291Z,14.10
2018-12-13T15:08:40.994Z,13.67
2018-12-13T15:11:09.827Z,13.90
2018-12-13T15:13:38.531Z,13.63
2018-12-13T15:16:07.189Z,13.97
2018-12-13T15:18:36.112Z,14.57
2018-12-13T15:21:04.988Z,14.17
2018-12-13T15:23:33.932Z,14.90
2018-12-13T15:26:09.337Z,15.23
2018-12-13T15:28:38.071Z,13.83
2018-12-13T15:31:07.573Z,10.83
2018-12-13T15:33:36.107Z,13.30
2018-12-13T15:36:04.764Z,13.07
2018-12-13T15:38:34.227Z,13.73
2018-12-13T15:41:02.882Z,13.67
2018-12-13T15:43:31.528Z,11.50
2018-12-13T15:46:00.956Z,16.20
2018-12-13T15:48:29.497Z,12.80
2018-12-13T15:50:58.051Z,13.77
2018-12-13T15:53:26.678Z,13.10
2018-12-13T15:55:56.038Z,13.00
2018-12-13T15:58:24.687Z,14.07
2018-12-13T16:00:53.931Z,14.27
2018-12-13T16:03:22.561Z,14.20
2018-12-13T16:05:51.279Z,14.03
2018-12-13T16:08:19.987Z,14.43
2018-12-13T16:10:48.575Z,13.17
2018-12-13T16:13:17.204Z,13.47
2018-12-13T16:15:45.894Z,13.63
2018-12-13T16:18:14.520Z,13.97
2018-12-13T16:20:43.923Z,13.57
2018-12-13T16:23:13.275Z,14.10
2018-12-13T16:25:42.000Z,14.67
2018-12-13T16:28:10.636Z,13.70
2018-12-13T16:30:39.258Z,13.03
2018-12-13T16:33:08.484Z,13.93
2018-12-13T16:35:38.584Z,13.50
2018-12-13T16:38:07.326Z,13.27
2018-12-13T16:40:35.981Z,14.00
2018-12-13T16:43:04.599Z,13.77
2018-12-13T16:45:33.412Z,12.57
2018-12-13T16:48:01.956Z,13.43
2018-12-13T16:50:30.987Z,11.97
2018-12-13T16:52:59.611Z,13.67
2018-12-13T16:55:28.303Z,12.47
2018-12-13T16:57:57.387Z,12.83
2018-12-13T17:00:26.541Z,12.97
2018-12-13T17:02:55.341Z,12.73
2018-12-13T17:05:24.151Z,13.40
2018-12-13T17:07:53.498Z,13.30
2018-12-13T17:10:22.282Z,13.03
2018-12-13T17:12:52.039Z,14.00
2018-12-13T17:15:20.512Z,12.97
2018-12-13T17:17:50.522Z,13.63
2018-12-13T17:20:19.742Z,14.37
2018-12-13T17:22:48.579Z,13.30
2018-12-13T17:25:17.352Z,14.50
2018-12-13T17:27:46.551Z,13.47
2018-12-13T17:30:15.388Z,13.87
2018-12-13T17:32:44.087Z,14.37
2018-12-13T17:35:12.774Z,14.13
2018-12-13T17:37:41.453Z,13.37
2018-12-13T17:40:10.476Z,14.73
2018-12-13T17:42:39.418Z,14.03
2018-12-13T17:45:08.223Z,13.33
2018-12-13T17:47:37.106Z,13.73
2018-12-13T17:50:06.288Z,13.53
2018-12-13T17:52:35.377Z,12.97
2018-12-13T17:55:04.757Z,13.33
2018-12-13T17:57:33.861Z,12.73
2018-12-13T18:00:02.596Z,14.13
2018-12-13T18:02:31.472Z,13.43
2018-12-13T18:05:00.275Z,14.20
2018-12-13T18:07:35.910Z,14.33
2018-12-13T18:10:05.695Z,12.67
2018-12-13T18:12:34.527Z,14.43
2018-12-13T18:15:03.765Z,13.83
2018-12-13T18:17:32.776Z,13.40
2018-12-13T18:20:01.503Z,12.97
2018-12-13T18:22:30.258Z,13.10
2018-12-13T18:24:59.241Z,12.77
2018-12-13T18:27:27.809Z,12.87
2018-12-13T18:29:56.600Z,13.40
2018-12-13T18:32:25.142Z,12.73
2018-12-13T18:34:53.975Z,12.80
2018-12-13T18:37:23.318Z,12.20
2018-12-13T18:39:52.169Z,12.70
2018-12-13T18:42:20.739Z,11.97
2018-12-13T18:44:49.483Z,12.60
2018-12-13T18:47:18.651Z,13.03
2018-12-13T18:49:47.526Z,13.07
2018-12-13T18:52:16.116Z,12.80
2018-12-13T18:54:44.899Z,13.50
2018-12-13T18:57:13.635Z,14.43
2018-12-13T18:59:42.587Z,12.40
2018-12-13T19:02:11.575Z,12.83
2018-12-13T19:04:40.165Z,13.47
2018-12-13T19:07:09.096Z,12.97
2018-12-13T19:09:37.732Z,11.90
2018-12-13T19:12:06.668Z,12.67
2018-12-13T19:14:35.144Z,12.77
2018-12-13T19:17:04.369Z,12.63
2018-12-13T19:19:33.803Z,12.30
2018-12-13T19:22:02.642Z,12.77
2018-12-13T19:24:31.442Z,13.63
2018-12-13T19:27:00.131Z,13.37
2018-12-13T19:29:29.146Z,12.97
2018-12-13T19:31:57.772Z,12.27
2018-12-13T19:34:26.438Z,13.10
2018-12-13T19:36:56.027Z,13.33
2018-12-13T19:39:25.612Z,12.77
2018-12-13T19:41:54.393Z,12.97
2018-12-13T19:44:23.423Z,12.50
2018-12-13T19:46:52.029Z,12.13
2018-12-13T19:49:20.994Z,13.70
2018-12-13T19:51:49.698Z,12.57
2018-12-13T19:54:18.353Z,12.73
2018-12-13T19:56:47.230Z,12.90
2018-12-13T19:59:16.232Z,13.37
2018-12-13T20:01:45.716Z,12.37
2018-12-13T20:04:14.661Z,12.73
2018-12-13T20:06:43.465Z,12.17
2018-12-13T20:09:12.114Z,12.90
2018-12-13T20:11:41.323Z,12.33
2018-12-13T20:14:10.749Z,13.07
2018-12-13T20:16:39.459Z,13.10
2018-12-13T20:19:08.239Z,13.57
2018-12-13T20:21:37.292Z,14.17
2018-12-13T20:24:06.255Z,13.97
2018-12-13T20:26:34.966Z,11.97
2018-12-13T20:29:04.214Z,13.23
2018-12-13T20:31:33.175Z,18.77
2018-12-13T20:34:02.160Z,12.83
2018-12-13T20:36:31.996Z,12.07
2018-12-13T20:39:00.571Z,12.83
2018-12-13T20:41:29.419Z,12.23
2018-12-13T20:43:58.252Z,12.03
2018-12-13T20:46:27.237Z,13.07
2018-12-13T20:48:55.842Z,13.13
2018-12-13T20:51:25.188Z,13.00
2018-12-13T20:53:54.203Z,11.70
2018-12-13T20:56:23.651Z,13.50
2018-12-13T21:02:24.426Z,12.43
2018-12-13T21:04:53.534Z,11.93
2018-12-13T21:07:27.606Z,12.77
2018-12-13T21:09:56.740Z,12.73
2018-12-13T21:12:26.232Z,13.60
2018-12-13T21:14:54.937Z,11.93
2018-12-13T21:17:24.464Z,10.70
2018-12-13T21:19:53.161Z,12.17
2018-12-13T21:22:22.047Z,12.53
2018-12-13T21:24:51.129Z,12.10
2018-12-13T21:27:20.109Z,14.37
2018-12-13T21:29:48.951Z,12.87
2018-12-13T21:32:17.428Z,16.95
2018-12-13T21:34:46.173Z,14.10
2018-12-13T21:37:15.237Z,13.07
2018-12-13T21:39:45.032Z,14.10
2018-12-13T21:42:13.860Z,13.93
2018-12-13T21:44:43.220Z,13.27
2018-12-13T21:47:12.333Z,13.50
2018-12-13T21:49:41.152Z,13.67
2018-12-13T21:52:09.776Z,12.53
2018-12-13T21:54:38.463Z,13.63
2018-12-13T21:57:07.446Z,12.90
2018-12-13T21:59:36.493Z,13.93
2018-12-13T22:02:05.725Z,12.77
2018-12-13T22:04:34.282Z,13.63
2018-12-13T22:07:03.032Z,14.57
2018-12-13T22:09:31.895Z,14.33
2018-12-13T22:12:00.660Z,13.53
2018-12-13T22:14:29.844Z,13.97
2018-12-13T22:16:58.679Z,14.43
2018-12-13T22:19:28.349Z,14.50
2018-12-13T22:21:57.827Z,14.50
2018-12-13T22:24:26.664Z,13.87
2018-12-13T22:26:55.362Z,13.83
2018-12-13T22:29:24.041Z,14.20
2018-12-13T22:31:53.031Z,15.67
2018-12-13T22:34:22.923Z,13.57
2018-12-13T22:36:51.970Z,14.97
2018-12-13T22:39:20.921Z,14.30
2018-12-13T22:41:49.644Z,15.13
2018-12-13T22:44:18.191Z,14.50
2018-12-13T22:46:46.835Z,15.33
2018-12-13T22:49:15.382Z,14.93
2018-12-13T22:51:43.887Z,15.17
2018-12-13T22:54:12.487Z,14.03
2018-12-13T22:56:40.955Z,14.50
2018-12-13T22:59:09.447Z,15.23
2018-12-13T23:01:38.129Z,16.73
2018-12-13T23:04:06.737Z,14.33
2018-12-13T23:06:35.598Z,14.90
2018-12-13T23:09:06.023Z,13.70
2018-12-13T23:11:35.476Z,15.27
2018-12-13T23:14:04.192Z,15.70
2018-12-13T23:16:32.752Z,14.80
2018-12-13T23:19:01.746Z,14.70
2018-12-13T23:21:32.095Z,14.67
2018-12-13T23:24:00.872Z,14.97
2018-12-13T23:26:30.354Z,14.53
2018-12-13T23:28:58.934Z,15.87
2018-12-13T23:31:27.487Z,15.63
2018-12-13T23:33:56.154Z,16.23
2018-12-13T23:36:25.035Z,15.13
2018-12-13T23:38:53.542Z,14.57
2018-12-13T23:41:22.194Z,15.20
2018-12-13T23:43:50.716Z,15.27
2018-12-13T23:46:19.272Z,15.83
2018-12-13T23:48:47.777Z,14.30
2018-12-13T23:51:16.422Z,16.43
2018-12-13T23:53:44.962Z,15.20
2018-12-13T23:56:13.638Z,15.57
2018-12-13T23:58:42.268Z,14.37
